createdAt,value
2019-04-27T00:00:55.817Z,83.82
2019-04-27T00:03:41.154Z,82.40
2019-04-27T00:06:14.091Z,83.71
2019-04-27T00:08:50.905Z,83.93
2019-04-27T00:11:33.086Z,83.80
2019-04-27T00:14:10.409Z,83.43
2019-04-27T00:16:56.651Z,83.30
2019-04-27T00:19:49.920Z,83.53
2019-04-27T00:22:27.680Z,84.28
2019-04-27T00:25:04.689Z,83.63
2019-04-27T00:27:40.227Z,84.32
2019-04-27T00:30:17.562Z,83.02
2019-04-27T00:32:53.595Z,83.43
2019-04-27T00:35:36.992Z,83.15
2019-04-27T00:38:26.885Z,83.87
2019-04-27T00:41:04.638Z,83.07
2019-04-27T00:43:40.447Z,83.54
2019-04-27T00:46:15.614Z,85.44
2019-04-27T00:48:50.770Z,83.56
2019-04-27T00:51:26.153Z,83.34
2019-04-27T00:54:01.602Z,82.13
2019-04-27T00:56:44.469Z,81.95
2019-04-27T00:59:38.666Z,82.06
2019-04-27T01:02:35.461Z,82.74
2019-04-27T01:05:27.999Z,84.07
2019-04-27T01:08:03.859Z,83.47
2019-04-27T01:10:38.984Z,81.51
2019-04-27T01:13:14.427Z,82.75
2019-04-27T01:15:49.698Z,81.81
2019-04-27T01:18:28.475Z,82.09
2019-04-27T01:21:03.847Z,83.53
2019-04-27T01:23:38.923Z,82.10
2019-04-27T01:26:33.173Z,83.20
2019-04-27T01:29:10.320Z,83.88
2019-04-27T01:31:45.668Z,82.24
2019-04-27T01:34:20.844Z,82.18
2019-04-27T01:36:56.603Z,81.55
2019-04-27T01:39:32.590Z,81.63
2019-04-27T01:42:08.910Z,81.32
2019-04-27T01:44:44.524Z,81.26
2019-04-27T01:47:19.621Z,81.65
2019-04-27T01:49:58.558Z,80.53
2019-04-27T01:52:33.659Z,81.28
2019-04-27T01:55:08.907Z,81.00
2019-04-27T01:57:45.620Z,81.18
2019-04-27T02:00:39.591Z,81.84
2019-04-27T02:03:16.348Z,81.17
2019-04-27T02:05:56.046Z,81.10
2019-04-27T02:08:32.854Z,81.35
2019-04-27T02:11:09.264Z,80.59
2019-04-27T02:13:46.582Z,81.05
2019-04-27T02:16:21.647Z,81.05
2019-04-27T02:18:58.561Z,80.20
2019-04-27T02:21:33.742Z,80.38
2019-04-27T02:24:13.305Z,79.75
2019-04-27T02:26:49.735Z,80.63
2019-04-27T02:29:36.240Z,80.05
2019-04-27T02:32:32.434Z,80.38
2019-04-27T02:35:09.472Z,79.82
2019-04-27T02:37:45.381Z,80.49
2019-04-27T02:40:49.565Z,79.34
2019-04-27T02:43:46.053Z,79.82
2019-04-27T02:46:22.239Z,79.31
2019-04-27T02:49:03.593Z,78.87
2019-04-27T02:51:54.561Z,78.88
2019-04-27T02:54:29.970Z,78.98
2019-04-27T02:57:05.235Z,79.07
2019-04-27T02:59:41.512Z,78.16
2019-04-27T03:02:19.639Z,78.35
2019-04-27T03:04:54.893Z,78.77
2019-04-27T03:07:30.927Z,78.67
2019-04-27T03:10:09.694Z,78.75
2019-04-27T03:12:45.779Z,78.50
2019-04-27T03:15:30.563Z,78.37
2019-04-27T03:18:24.137Z,78.05
2019-04-27T03:21:19.852Z,78.18
2019-04-27T03:23:54.226Z,77.47
2019-04-27T03:26:31.178Z,77.66
2019-04-27T03:29:06.346Z,77.78
2019-04-27T03:31:46.139Z,77.29
2019-04-27T03:34:22.277Z,77.25
2019-04-27T03:36:56.084Z,77.50
2019-04-27T03:39:32.913Z,76.87
2019-04-27T03:42:10.416Z,76.71
2019-04-27T03:44:50.284Z,76.84
2019-04-27T03:47:24.634Z,76.86
2019-04-27T03:50:00.218Z,77.02
2019-04-27T03:52:37.030Z,77.04
2019-04-27T03:55:13.866Z,77.33
2019-04-27T03:57:50.854Z,77.00
2019-04-27T04:00:30.067Z,77.76
2019-04-27T04:03:05.027Z,76.94
2019-04-27T04:05:41.345Z,76.85
2019-04-27T04:08:16.449Z,76.53
2019-04-27T04:11:00.359Z,76.96
2019-04-27T04:13:43.663Z,77.19
2019-04-27T04:16:36.589Z,77.40
2019-04-27T04:19:11.977Z,76.62
2019-04-27T04:21:50.131Z,76.66
2019-04-27T04:24:28.352Z,76.31
2019-04-27T04:27:06.615Z,76.21
2019-04-27T04:29:41.706Z,76.07
2019-04-27T04:32:19.070Z,75.80
2019-04-27T04:34:54.683Z,75.83
2019-04-27T04:37:29.895Z,76.36
2019-04-27T04:40:07.009Z,75.79
2019-04-27T04:42:46.374Z,75.70
2019-04-27T04:45:36.101Z,75.62
2019-04-27T04:48:12.886Z,76.02
2019-04-27T04:50:50.064Z,75.97
2019-04-27T04:53:24.935Z,75.32
2019-04-27T04:56:00.476Z,75.82
2019-04-27T04:58:37.014Z,75.93
2019-04-27T05:01:12.674Z,76.13
2019-04-27T05:03:48.815Z,76.28
2019-04-27T05:06:25.570Z,76.13
2019-04-27T05:09:00.920Z,76.22
2019-04-27T05:11:39.493Z,75.12
2019-04-27T05:14:14.495Z,75.45
2019-04-27T05:16:49.629Z,75.10
2019-04-27T05:19:25.226Z,75.24
2019-04-27T05:22:00.433Z,75.56
2019-04-27T05:24:35.888Z,74.94
2019-04-27T05:27:11.503Z,74.82
2019-04-27T05:29:46.569Z,74.74
2019-04-27T05:32:21.976Z,74.57
2019-04-27T05:34:59.690Z,74.25
2019-04-27T05:37:34.847Z,74.17
2019-04-27T05:40:09.926Z,74.51
2019-04-27T05:42:48.874Z,74.47
2019-04-27T05:46:03.372Z,74.10
2019-04-27T05:48:40.781Z,74.90
2019-04-27T05:51:16.326Z,74.25
2019-04-27T05:53:55.050Z,73.84
2019-04-27T05:56:39.050Z,73.23
2019-04-27T05:59:14.962Z,72.97
2019-04-27T06:01:51.540Z,72.18
2019-04-27T06:04:29.091Z,71.82
2019-04-27T06:07:06.728Z,71.45
2019-04-27T06:09:42.297Z,71.58
2019-04-27T06:12:18.940Z,71.83
2019-04-27T06:14:59.843Z,71.51
2019-04-27T06:17:35.247Z,71.87
2019-04-27T06:20:10.727Z,70.71
2019-04-27T06:22:46.276Z,69.67
2019-04-27T06:25:22.350Z,69.22
2019-04-27T06:27:59.129Z,67.91
2019-04-27T06:30:34.545Z,67.78
2019-04-27T06:33:09.606Z,67.59
2019-04-27T06:35:45.028Z,66.46
2019-04-27T06:38:20.373Z,66.16
2019-04-27T06:40:55.585Z,65.99
2019-04-27T06:43:30.759Z,66.74
2019-04-27T06:46:05.984Z,66.43
2019-04-27T06:48:41.099Z,66.90
2019-04-27T06:51:17.376Z,67.05
2019-04-27T06:53:52.778Z,68.21
2019-04-27T06:56:28.764Z,68.42
2019-04-27T06:59:04.435Z,68.12
2019-04-27T07:01:39.796Z,67.56
2019-04-27T07:04:15.196Z,67.48
2019-04-27T07:06:53.993Z,68.47
2019-04-27T07:09:29.526Z,67.55
2019-04-27T07:12:05.016Z,67.85
2019-04-27T07:14:52.363Z,66.91
2019-04-27T07:17:18.917Z,67.21
2019-04-27T07:19:56.261Z,67.26
2019-04-27T07:22:39.681Z,66.99
2019-04-27T07:25:14.968Z,66.47
2019-04-27T07:27:51.511Z,66.00
2019-04-27T07:30:32.445Z,65.41
2019-04-27T07:33:08.747Z,64.44
2019-04-27T07:35:45.327Z,65.29
2019-04-27T07:38:21.787Z,65.05
2019-04-27T07:41:05.906Z,64.31
2019-04-27T07:43:43.812Z,62.48
2019-04-27T07:46:19.327Z,61.46
2019-04-27T07:48:54.924Z,61.16
2019-04-27T07:51:34.179Z,60.61
2019-04-27T07:54:11.855Z,59.44
2019-04-27T07:56:50.037Z,59.73
2019-04-27T07:59:34.844Z,59.65
2019-04-27T08:02:11.207Z,59.74
2019-04-27T08:04:48.462Z,58.74
2019-04-27T08:07:25.987Z,58.79
2019-04-27T08:10:02.859Z,58.23
2019-04-27T08:12:38.961Z,58.08
2019-04-27T08:15:14.244Z,59.46
2019-04-27T08:17:49.917Z,59.35
2019-04-27T08:20:25.154Z,58.90
2019-04-27T08:23:01.356Z,58.86
2019-04-27T08:25:39.233Z,58.69
2019-04-27T08:28:35.357Z,59.81
2019-04-27T08:31:15.405Z,59.23
2019-04-27T08:33:51.998Z,59.48
2019-04-27T08:36:28.798Z,58.60
2019-04-27T08:39:08.911Z,58.69
2019-04-27T08:41:44.773Z,58.00
2019-04-27T08:44:20.237Z,56.87
2019-04-27T08:46:55.394Z,56.54
2019-04-27T08:49:31.437Z,55.17
2019-04-27T08:52:06.594Z,51.94
2019-04-27T08:54:42.600Z,47.22
2019-04-27T08:57:18.839Z,47.53
2019-04-27T08:59:55.100Z,47.35
2019-04-27T09:02:41.515Z,46.21
2019-04-27T09:05:09.403Z,46.50
2019-04-27T09:07:49.806Z,45.46
2019-04-27T09:10:28.903Z,46.24
2019-04-27T09:13:06.301Z,46.82
2019-04-27T09:15:43.149Z,45.66
2019-04-27T09:18:19.992Z,44.12
2019-04-27T09:21:04.474Z,43.88
2019-04-27T09:23:40.615Z,43.80
2019-04-27T09:26:18.600Z,43.07
2019-04-27T09:28:56.531Z,41.08
2019-04-27T09:31:34.310Z,39.54
2019-04-27T09:34:10.587Z,39.50
2019-04-27T09:36:46.628Z,38.39
2019-04-27T09:39:23.114Z,40.84
2019-04-27T09:42:00.102Z,40.00
2019-04-27T09:44:37.076Z,39.94
2019-04-27T09:47:12.410Z,40.49
2019-04-27T09:49:47.574Z,41.25
2019-04-27T09:52:26.193Z,40.84
2019-04-27T09:55:06.702Z,41.20
2019-04-27T09:57:42.920Z,41.66
2019-04-27T10:00:18.795Z,42.13
2019-04-27T10:02:59.475Z,42.00
2019-04-27T10:05:38.515Z,42.96
2019-04-27T10:08:13.745Z,43.29
2019-04-27T10:10:49.900Z,42.51
2019-04-27T10:13:25.698Z,42.00
2019-04-27T10:16:03.795Z,41.52
2019-04-27T10:18:45.864Z,41.71
2019-04-27T10:21:21.097Z,40.59
2019-04-27T10:23:56.760Z,39.31
2019-04-27T10:26:33.958Z,39.55
2019-04-27T10:29:10.526Z,38.92
2019-04-27T10:31:46.083Z,38.21
2019-04-27T10:34:24.072Z,37.43
2019-04-27T10:37:00.660Z,38.18
2019-04-27T10:39:36.314Z,37.55
2019-04-27T10:42:12.435Z,37.47
2019-04-27T10:44:52.958Z,37.96
2019-04-27T10:47:30.417Z,38.34
2019-04-27T10:50:07.548Z,39.23
2019-04-27T10:52:52.775Z,37.84
2019-04-27T10:55:21.213Z,36.84
2019-04-27T10:57:57.376Z,35.41
2019-04-27T11:00:36.728Z,34.28
2019-04-27T11:03:16.528Z,33.54
2019-04-27T11:05:53.643Z,32.72
2019-04-27T11:08:28.764Z,32.70
2019-04-27T11:11:03.924Z,32.22
2019-04-27T11:13:41.657Z,32.00
2019-04-27T11:16:16.818Z,32.75
2019-04-27T11:18:52.959Z,33.41
2019-04-27T11:21:28.084Z,32.95
2019-04-27T11:24:10.189Z,31.81
2019-04-27T11:26:46.647Z,29.69
2019-04-27T11:29:23.479Z,28.65
2019-04-27T11:32:00.145Z,30.44
2019-04-27T11:34:55.857Z,30.00
2019-04-27T11:37:32.891Z,29.53
2019-04-27T11:40:13.884Z,28.44
2019-04-27T11:42:50.167Z,27.91
2019-04-27T11:45:28.516Z,28.03
2019-04-27T11:48:05.761Z,29.06
2019-04-27T11:50:45.716Z,29.73
2019-04-27T11:53:23.190Z,29.15
2019-04-27T11:55:58.643Z,29.18
2019-04-27T11:58:35.838Z,29.59
2019-04-27T12:01:13.258Z,29.66
2019-04-27T12:03:55.650Z,30.81
2019-04-27T12:06:31.845Z,27.38
2019-04-27T12:09:12.811Z,25.48
2019-04-27T12:11:48.268Z,25.80
2019-04-27T12:14:23.617Z,24.01
2019-04-27T12:16:59.457Z,23.06
2019-04-27T12:19:51.786Z,22.42
2019-04-27T12:22:47.758Z,21.68
2019-04-27T12:25:25.360Z,21.94
2019-04-27T12:28:16.594Z,21.63
2019-04-27T12:31:04.814Z,20.47
2019-04-27T12:33:42.974Z,22.27
2019-04-27T12:36:25.808Z,25.64
2019-04-27T12:39:06.935Z,26.72
2019-04-27T12:41:48.480Z,27.12
2019-04-27T12:44:26.604Z,26.00
2019-04-27T12:47:02.634Z,25.92
2019-04-27T12:49:52.950Z,26.74
2019-04-27T12:52:29.062Z,28.86
2019-04-27T12:55:26.320Z,30.45
2019-04-27T12:58:17.568Z,31.36
2019-04-27T13:00:56.493Z,30.41
2019-04-27T13:03:33.486Z,29.36
2019-04-27T13:06:11.616Z,29.77
2019-04-27T13:09:41.601Z,30.92
2019-04-27T13:11:27.658Z,31.42
2019-04-27T13:14:02.858Z,33.13
2019-04-27T13:16:38.248Z,34.26
2019-04-27T13:19:13.542Z,35.31
2019-04-27T13:21:48.749Z,36.19
2019-04-27T13:24:23.938Z,36.32
2019-04-27T13:26:59.157Z,37.26
2019-04-27T13:29:35.753Z,37.04
2019-04-27T13:32:12.139Z,37.03
2019-04-27T13:34:48.995Z,37.07
2019-04-27T13:37:39.317Z,37.32
2019-04-27T13:40:17.048Z,37.35
2019-04-27T13:43:07.959Z,37.92
2019-04-27T13:45:51.715Z,39.28
2019-04-27T13:48:47.003Z,38.32
2019-04-27T13:51:37.822Z,39.17
2019-04-27T13:54:23.745Z,38.96
2019-04-27T13:56:56.289Z,38.98
2019-04-27T13:59:34.934Z,38.71
2019-04-27T14:02:11.423Z,37.99
2019-04-27T14:04:53.304Z,37.19
2019-04-27T14:07:29.773Z,37.86
2019-04-27T14:10:09.319Z,38.72
2019-04-27T14:12:44.832Z,37.84
2019-04-27T14:15:19.918Z,37.44
2019-04-27T14:17:56.058Z,37.35
2019-04-27T14:20:31.302Z,37.15
2019-04-27T14:23:11.611Z,37.02
2019-04-27T14:25:50.180Z,37.14
2019-04-27T14:28:26.309Z,36.78
2019-04-27T14:31:01.381Z,37.17
2019-04-27T14:33:39.562Z,36.36
2019-04-27T14:36:15.140Z,35.85
2019-04-27T14:38:50.717Z,35.18
2019-04-27T14:41:25.785Z,33.28
2019-04-27T14:44:08.077Z,32.85
2019-04-27T14:46:39.723Z,32.11
2019-04-27T14:49:14.965Z,32.14
2019-04-27T14:51:51.484Z,30.23
2019-04-27T14:54:30.182Z,30.35
2019-04-27T14:57:09.139Z,28.96
2019-04-27T14:59:51.283Z,29.11
2019-04-27T15:02:27.697Z,30.48
2019-04-27T15:05:03.239Z,30.39
2019-04-27T15:07:39.658Z,30.51
2019-04-27T15:10:16.472Z,30.60
2019-04-27T15:12:55.368Z,30.99
2019-04-27T15:15:32.501Z,31.22
2019-04-27T15:18:13.471Z,30.82
2019-04-27T15:20:51.705Z,28.49
2019-04-27T15:23:31.832Z,27.68
2019-04-27T15:26:10.389Z,27.10
2019-04-27T15:28:49.532Z,26.52
2019-04-27T15:31:30.634Z,27.29
2019-04-27T15:34:11.479Z,28.22
2019-04-27T15:36:52.900Z,29.24
2019-04-27T15:39:48.519Z,29.91
2019-04-27T15:42:41.652Z,29.93
2019-04-27T15:45:15.969Z,30.88
2019-04-27T15:47:54.610Z,31.77
2019-04-27T15:50:31.958Z,29.41
2019-04-27T15:53:09.862Z,28.28
2019-04-27T15:55:42.923Z,27.40
2019-04-27T15:58:24.798Z,26.60
2019-04-27T16:01:00.147Z,25.30
2019-04-27T16:03:35.140Z,25.28
2019-04-27T16:06:19.072Z,24.78
2019-04-27T16:08:55.277Z,25.03
2019-04-27T16:11:38.432Z,25.11
2019-04-27T16:14:15.993Z,25.55
2019-04-27T16:16:51.847Z,25.16
2019-04-27T16:19:28.770Z,25.84
2019-04-27T16:22:04.257Z,25.93
2019-04-27T16:24:39.499Z,27.54
2019-04-27T16:27:14.665Z,29.22
2019-04-27T16:29:50.926Z,30.15
2019-04-27T16:32:27.834Z,31.97
2019-04-27T16:35:03.020Z,33.20
2019-04-27T16:38:00.003Z,34.09
2019-04-27T16:40:35.260Z,35.02
2019-04-27T16:43:10.668Z,36.47
2019-04-27T16:45:59.723Z,37.37
2019-04-27T16:48:34.642Z,37.80
2019-04-27T16:51:10.678Z,38.73
2019-04-27T16:53:46.132Z,38.84
2019-04-27T16:56:24.588Z,38.81
2019-04-27T16:59:26.752Z,39.93
2019-04-27T17:01:50.299Z,40.52
2019-04-27T17:04:25.567Z,39.78
2019-04-27T17:07:02.683Z,39.83
2019-04-27T17:09:42.134Z,39.33
2019-04-27T17:12:18.045Z,39.83
2019-04-27T17:15:10.621Z,39.76
2019-04-27T17:18:05.953Z,40.70
2019-04-27T17:23:40.175Z,41.46
2019-04-27T17:26:21.692Z,41.81
2019-04-27T17:29:10.946Z,42.19
2019-04-27T17:31:44.905Z,41.63
2019-04-27T17:34:25.262Z,43.93
2019-04-27T17:36:59.106Z,41.94
2019-04-27T17:39:34.415Z,43.16
2019-04-27T17:42:09.635Z,43.26
2019-04-27T17:44:45.731Z,43.44
2019-04-27T17:47:26.430Z,44.46
2019-04-27T17:50:09.308Z,44.54
2019-04-27T17:52:48.514Z,46.03
2019-04-27T17:55:25.334Z,45.84
2019-04-27T17:58:05.481Z,45.85
2019-04-27T18:00:44.710Z,47.92
2019-04-27T18:03:21.174Z,47.33
2019-04-27T18:05:58.141Z,47.56
2019-04-27T18:08:33.754Z,47.48
2019-04-27T18:11:09.847Z,47.36
2019-04-27T18:13:51.404Z,47.54
2019-04-27T18:16:33.929Z,48.01
2019-04-27T18:19:18.296Z,48.90
2019-04-27T18:22:00.886Z,48.68
2019-04-27T18:24:48.179Z,49.40
2019-04-27T18:27:25.241Z,48.88
2019-04-27T18:30:19.093Z,48.78
2019-04-27T18:32:59.362Z,49.19
2019-04-27T18:35:34.218Z,49.58
2019-04-27T18:38:10.202Z,49.98
2019-04-27T18:40:48.830Z,51.10
2019-04-27T18:43:38.429Z,50.62
2019-04-27T18:46:19.041Z,50.51
2019-04-27T18:48:54.196Z,51.19
2019-04-27T18:51:38.313Z,51.77
2019-04-27T18:54:18.403Z,52.18
2019-04-27T18:57:02.183Z,52.68
2019-04-27T18:59:30.626Z,53.38
2019-04-27T19:02:09.425Z,53.71
2019-04-27T19:04:44.940Z,54.08
2019-04-27T19:07:21.652Z,54.66
2019-04-27T19:09:58.827Z,54.99
2019-04-27T19:12:35.556Z,55.69
2019-04-27T19:15:12.140Z,55.18
2019-04-27T19:17:48.944Z,55.12
2019-04-27T19:20:28.651Z,54.84
2019-04-27T19:23:06.205Z,53.67
2019-04-27T19:25:48.605Z,52.11
2019-04-27T19:28:39.586Z,52.35
2019-04-27T19:31:16.354Z,51.64
2019-04-27T19:33:51.725Z,51.78
2019-04-27T19:36:27.944Z,52.02
2019-04-27T19:39:08.761Z,51.98
2019-04-27T19:41:59.473Z,52.06
2019-04-27T19:44:25.326Z,52.24
2019-04-27T19:47:00.719Z,52.66
2019-04-27T19:49:46.125Z,52.85
2019-04-27T19:52:22.756Z,53.70
2019-04-27T19:55:00.403Z,53.35
2019-04-27T19:57:40.331Z,53.46
2019-04-27T20:00:31.745Z,53.54
2019-04-27T20:03:08.763Z,53.80
2019-04-27T20:05:45.241Z,54.50
2019-04-27T20:08:25.809Z,54.40
2019-04-27T20:11:03.600Z,54.22
2019-04-27T20:13:38.910Z,54.83
2019-04-27T20:16:21.111Z,54.42
2019-04-27T20:18:56.269Z,54.81
2019-04-27T20:21:32.894Z,55.04
2019-04-27T20:24:14.961Z,55.01
2019-04-27T20:26:52.810Z,54.85
2019-04-27T20:29:28.139Z,55.24
2019-04-27T20:32:04.163Z,55.61
2019-04-27T20:34:41.138Z,55.58
2019-04-27T20:37:21.053Z,55.23
2019-04-27T20:39:58.178Z,55.23
2019-04-27T20:42:35.003Z,55.43
2019-04-27T20:45:11.955Z,55.76
2019-04-27T20:47:47.564Z,55.51
2019-04-27T20:50:22.671Z,55.61
2019-04-27T20:52:58.751Z,55.62
2019-04-27T20:55:34.197Z,56.17
2019-04-27T20:58:11.202Z,56.77
2019-04-27T21:00:46.732Z,55.67
2019-04-27T21:03:32.497Z,56.43
2019-04-27T21:06:11.067Z,56.03
2019-04-27T21:08:47.240Z,56.08
2019-04-27T21:11:23.691Z,56.45
2019-04-27T21:14:01.052Z,56.61
2019-04-27T21:16:38.435Z,56.83
2019-04-27T21:19:15.103Z,56.70
2019-04-27T21:21:51.577Z,56.92
2019-04-27T21:24:27.047Z,57.17
2019-04-27T21:27:02.797Z,57.59
2019-04-27T21:29:42.084Z,57.81
2019-04-27T21:32:18.116Z,58.10
2019-04-27T21:34:54.927Z,58.78
2019-04-27T21:37:30.660Z,57.80
2019-04-27T21:40:14.493Z,58.24
2019-04-27T21:42:51.191Z,58.08
2019-04-27T21:45:26.722Z,58.81
2019-04-27T21:48:02.247Z,58.43
2019-04-27T21:50:37.575Z,57.86
2019-04-27T21:53:26.974Z,58.10
2019-04-27T21:56:04.556Z,58.36
2019-04-27T21:58:41.810Z,58.42
2019-04-27T22:01:24.749Z,58.69
2019-04-27T22:04:01.053Z,58.94
2019-04-27T22:06:37.518Z,59.18
2019-04-27T22:09:13.555Z,59.54
2019-04-27T22:11:51.080Z,60.11
2019-04-27T22:14:28.624Z,60.02
2019-04-27T22:17:03.823Z,60.27
2019-04-27T22:19:43.759Z,60.65
2019-04-27T22:22:23.115Z,60.73
2019-04-27T22:25:01.307Z,60.71
2019-04-27T22:27:36.665Z,60.93
2019-04-27T22:30:11.840Z,60.93
2019-04-27T22:32:48.026Z,61.25
2019-04-27T22:35:23.129Z,61.08
2019-04-27T22:37:58.678Z,61.66
2019-04-27T22:40:53.542Z,61.64
2019-04-27T22:43:36.459Z,61.85
2019-04-27T22:46:13.245Z,62.35
2019-04-27T22:48:49.340Z,62.60
2019-04-27T22:51:24.470Z,62.93
2019-04-27T22:54:01.244Z,63.17
2019-04-27T22:56:36.853Z,63.48
2019-04-27T22:59:21.469Z,63.78
2019-04-27T23:02:14.544Z,63.99
2019-04-27T23:05:01.953Z,63.93
2019-04-27T23:07:38.036Z,64.21
2019-04-27T23:10:13.737Z,63.87
2019-04-27T23:12:50.958Z,64.24
2019-04-27T23:15:28.247Z,64.88
2019-04-27T23:18:03.489Z,64.56
2019-04-27T23:20:40.782Z,64.07
2019-04-27T23:23:15.828Z,64.36
2019-04-27T23:25:51.389Z,64.24
2019-04-27T23:28:31.313Z,64.23
2019-04-27T23:31:12.708Z,64.25
2019-04-27T23:33:49.438Z,64.32
2019-04-27T23:36:24.531Z,64.24
2019-04-27T23:39:01.085Z,64.66
2019-04-27T23:41:38.107Z,64.48
2019-04-27T23:44:13.276Z,64.37
2019-04-27T23:46:48.375Z,64.38
2019-04-27T23:49:23.856Z,64.67
2019-04-27T23:52:10.576Z,64.67
2019-04-27T23:54:45.718Z,64.93
2019-04-27T23:57:21.772Z,65.12
2019-04-27T23:59:57.419Z,65.25
